Time;durP1;ratioP1;P1;durP2;ratioP2;P2;SDS_P1;SDS_P2;PMS_P1;PMS_P2;Temp;Humidity;BMP_temperature;BMP_pressure;BME280_temperature;BME280_humidity;BME280_pressure;Samples;Min_cycle;Max_cycle;Signal;HPM_P1;HPM_P2
2021/10/23 00:00:31;;;;;;;109.22;61.17;;;;;;;12.93;69.30;95312.09;5384292;23;20046;-81
2021/10/23 00:02:57;;;;;;;122.38;65.53;;;;;;;12.88;69.29;95301.56;4994567;28;20049;-81
2021/10/23 00:05:22;;;;;;;98.50;54.97;;;;;;;12.91;69.79;95301.09;4986613;28;20045;-81
2021/10/23 00:07:48;;;;;;;94.22;51.03;;;;;;;12.93;69.82;95293.81;4969676;28;20109;-81
2021/10/23 00:10:13;;;;;;;89.50;49.13;;;;;;;12.93;69.53;95299.03;4986807;28;20462;-81
2021/10/23 00:12:39;;;;;;;91.63;48.88;;;;;;;12.98;69.52;95303.56;5001656;28;20035;-81
2021/10/23 00:15:05;;;;;;;93.97;52.03;;;;;;;12.99;69.55;95295.50;4986158;28;20041;-81
2021/10/23 00:17:30;;;;;;;85.85;47.90;;;;;;;12.99;69.41;95303.31;4987242;28;20121;-82
2021/10/23 00:20:00;;;;;;;95.15;47.22;;;;;;;12.99;69.58;95295.50;4986612;28;20026;-83
2021/10/23 00:22:25;;;;;;;95.10;51.38;;;;;;;13.00;69.17;95299.69;4986434;28;20094;-82
2021/10/23 00:24:51;;;;;;;98.60;54.03;;;;;;;12.98;69.31;95295.72;4985219;28;20054;-83
2021/10/23 00:27:17;;;;;;;106.43;56.42;;;;;;;12.95;70.04;95297.00;4984961;28;20488;-80
2021/10/23 00:29:42;;;;;;;108.85;56.35;;;;;;;12.99;69.96;95292.09;4982068;28;20084;-80
2021/10/23 00:32:07;;;;;;;101.63;55.08;;;;;;;13.04;70.01;95295.59;4944596;28;20124;-80
2021/10/23 00:34:33;;;;;;;94.15;51.72;;;;;;;13.06;69.64;95282.31;4959194;28;20547;-80
2021/10/23 00:36:59;;;;;;;92.40;51.35;;;;;;;13.07;69.77;95284.69;4994092;28;20126;-80
2021/10/23 00:39:25;;;;;;;84.88;42.95;;;;;;;13.09;69.45;95282.63;5010316;28;20039;-80
2021/10/23 00:41:50;;;;;;;86.15;45.33;;;;;;;13.04;69.43;95290.38;4984950;28;20041;-81
2021/10/23 00:44:28;;;;;;;75.00;41.05;;;;;;;13.04;68.97;95274.72;4976683;28;20034;-80
2021/10/23 00:46:54;;;;;;;76.47;39.88;;;;;;;13.03;69.41;95280.97;4995917;28;20155;-79
2021/10/23 00:49:19;;;;;;;74.63;40.65;;;;;;;13.05;69.28;95276.28;4994853;28;20098;-80
2021/10/23 00:51:45;;;;;;;68.55;39.50;;;;;;;13.06;69.24;95271.88;5006563;28;20038;-81
2021/10/23 00:54:10;;;;;;;77.10;41.95;;;;;;;13.03;69.92;95261.91;4986055;28;20034;-81
2021/10/23 00:56:54;;;;;;;59.42;35.38;;;;;;;13.02;69.65;95255.88;5001880;28;20067;-80
2021/10/23 00:59:20;;;;;;;61.42;33.15;;;;;;;13.03;69.74;95262.69;4982986;28;20035;-80
2021/10/23 01:01:46;;;;;;;61.38;34.45;;;;;;;13.06;69.43;95266.63;5000568;28;20046;-80
2021/10/23 01:04:12;;;;;;;56.33;31.10;;;;;;;13.01;69.09;95269.16;4969846;28;20039;-79
2021/10/23 01:06:38;;;;;;;51.67;29.65;;;;;;;13.00;68.98;95276.19;4967006;28;20037;-79
2021/10/23 01:09:04;;;;;;;51.95;30.63;;;;;;;13.01;69.35;95276.97;4968968;28;20030;-79
2021/10/23 01:11:30;;;;;;;58.33;30.52;;;;;;;12.99;68.95;95272.00;4967491;28;20042;-80
2021/10/23 01:14:18;;;;;;;61.35;30.95;;;;;;;13.01;69.43;95264.72;5000790;28;20116;-80
2021/10/23 01:16:44;;;;;;;43.90;27.70;;;;;;;12.98;69.63;95274.84;4984525;28;20105;-80
2021/10/23 01:19:10;;;;;;;56.42;28.88;;;;;;;12.91;69.51;95277.59;4983118;28;20026;-80
2021/10/23 01:21:35;;;;;;;50.13;28.23;;;;;;;12.92;69.33;95282.59;4986707;28;20031;-80
2021/10/23 01:24:02;;;;;;;55.25;28.48;;;;;;;12.91;69.56;95280.22;4984034;28;20027;-80
2021/10/23 01:26:27;;;;;;;49.05;29.05;;;;;;;12.89;69.73;95277.06;4984308;28;20045;-80
2021/10/23 01:28:53;;;;;;;50.75;28.55;;;;;;;12.92;69.52;95277.38;4999950;28;20031;-80
2021/10/23 01:31:18;;;;;;;46.42;27.65;;;;;;;12.91;69.18;95275.00;4982574;28;20038;-80
2021/10/23 01:33:44;;;;;;;47.88;27.25;;;;;;;12.84;69.78;95274.34;4983139;28;20035;-79
2021/10/23 01:36:16;;;;;;;49.83;28.10;;;;;;;12.85;69.77;95281.97;4983648;28;20046;-80
2021/10/23 01:38:41;;;;;;;44.13;26.65;;;;;;;12.88;69.90;95275.47;4983604;28;20034;-80
2021/10/23 01:41:07;;;;;;;51.08;29.23;;;;;;;12.88;70.25;95271.03;4999048;28;20045;-79
2021/10/23 01:43:53;;;;;;;49.25;29.58;;;;;;;12.89;70.28;95280.47;4984200;28;20030;-79
2021/10/23 01:46:18;;;;;;;57.28;28.38;;;;;;;12.89;69.82;95271.84;4984107;28;20086;-79
2021/10/23 01:48:44;;;;;;;44.33;26.13;;;;;;;12.86;69.98;95267.88;4984899;28;20045;-79
2021/10/23 01:51:12;;;;;;;54.97;32.17;;;;;;;12.86;69.36;95267.88;4983141;28;20051;-79
2021/10/23 01:53:37;;;;;;;62.55;33.72;;;;;;;12.83;69.30;95275.38;4984646;28;20034;-79
2021/10/23 01:56:03;;;;;;;66.00;36.13;;;;;;;12.82;69.23;95281.59;4998352;28;20070;-79
2021/10/23 01:58:29;;;;;;;54.70;32.53;;;;;;;12.79;69.55;95284.69;5000239;28;20034;-79
2021/10/23 02:00:55;;;;;;;45.35;30.90;;;;;;;12.76;69.65;95287.78;4966423;28;20073;-79
2021/10/23 02:03:20;;;;;;;47.97;28.67;;;;;;;12.73;69.52;95290.84;5001383;28;20494;-79
2021/10/23 02:05:46;;;;;;;48.92;29.23;;;;;;;12.73;70.32;95283.81;4998447;28;20477;-79
2021/10/23 02:08:11;;;;;;;46.85;29.38;;;;;;;12.67;69.90;95281.31;5000656;28;20039;-79
2021/10/23 02:10:37;;;;;;;57.13;28.90;;;;;;;12.71;69.74;95287.69;4982874;28;20089;-80
2021/10/23 02:13:02;;;;;;;54.15;33.42;;;;;;;12.68;69.51;95291.53;4986717;28;20066;-80
2021/10/23 02:16:14;;;;;;;49.53;30.60;;;;;;;12.56;69.83;95293.41;4982557;28;20042;-80
2021/10/23 02:18:39;;;;;;;48.08;29.90;;;;;;;12.54;70.00;95295.47;4982681;28;20047;-80
2021/10/23 02:21:09;;;;;;;51.25;28.13;;;;;;;12.59;69.90;95298.16;4983560;28;20046;-80
2021/10/23 02:23:35;;;;;;;54.58;28.63;;;;;;;12.54;69.91;95296.25;4981793;28;20043;-80
2021/10/23 02:26:01;;;;;;;46.08;25.95;;;;;;;12.50;70.13;95300.31;4984387;28;20399;-80
2021/10/23 02:28:26;;;;;;;47.72;27.65;;;;;;;12.51;69.25;95306.34;4967960;28;20038;-81
2021/10/23 02:30:51;;;;;;;52.45;28.05;;;;;;;12.45;69.79;95307.28;4984966;28;20030;-80
2021/10/23 02:33:17;;;;;;;46.05;28.00;;;;;;;12.43;69.63;95315.31;4984630;28;20050;-80
2021/10/23 02:35:42;;;;;;;45.03;27.10;;;;;;;12.43;69.58;95315.31;4967144;28;20023;-80
2021/10/23 02:38:10;;;;;;;52.22;28.17;;;;;;;12.39;69.39;95313.41;5000674;28;20039;-80
2021/10/23 02:40:36;;;;;;;44.58;26.58;;;;;;;12.34;69.95;95308.88;4999914;28;20142;-80
2021/10/23 02:43:01;;;;;;;48.00;28.05;;;;;;;12.31;70.00;95317.16;4986078;28;20027;-79
2021/10/23 02:45:27;;;;;;;51.95;29.58;;;;;;;12.26;70.17;95315.25;4985128;28;20050;-78
2021/10/23 02:47:52;;;;;;;49.42;29.02;;;;;;;12.27;70.27;95310.81;4984893;28;20035;-79
2021/10/23 02:50:18;;;;;;;46.92;29.50;;;;;;;12.27;70.77;95316.03;4984797;28;20387;-79
2021/10/23 02:52:43;;;;;;;61.40;30.83;;;;;;;12.23;70.14;95314.91;4984510;28;20482;-78
2021/10/23 02:55:24;;;;;;;60.50;33.35;;;;;;;12.23;70.64;95315.72;4967327;28;20057;-78
2021/10/23 02:57:52;;;;;;;75.40;39.75;;;;;;;12.22;70.11;95308.13;4984503;28;20023;-78
2021/10/23 03:00:18;;;;;;;78.72;41.60;;;;;;;12.20;70.03;95315.34;4986535;28;20042;-79
2021/10/23 03:02:45;;;;;;;91.65;43.78;;;;;;;12.16;70.26;95314.22;4985941;28;20093;-79
2021/10/23 03:05:11;;;;;;;72.13;41.30;;;;;;;12.17;70.11;95306.19;4988345;28;20124;-78
2021/10/23 03:07:36;;;;;;;100.38;47.97;;;;;;;12.14;70.18;95311.84;5009185;28;20430;-79
2021/10/23 03:10:02;;;;;;;92.68;47.75;;;;;;;12.13;69.27;95317.31;4991477;28;20058;-78
2021/10/23 03:12:28;;;;;;;77.22;46.42;;;;;;;12.10;69.97;95315.16;4988955;28;20034;-79
2021/10/23 03:14:54;;;;;;;62.65;39.50;;;;;;;12.05;69.86;95315.06;4987062;28;20038;-78
2021/10/23 03:17:20;;;;;;;69.13;34.88;;;;;;;12.05;69.81;95309.84;4986178;28;20038;-78
2021/10/23 03:20:06;;;;;;;66.63;33.35;;;;;;;12.02;70.01;95304.03;4993351;28;20061;-78
2021/10/23 03:22:32;;;;;;;67.78;36.78;;;;;;;12.01;70.00;95307.66;4978180;28;20074;-77
2021/10/23 03:24:57;;;;;;;70.72;41.00;;;;;;;12.01;70.13;95305.06;4996538;28;20499;-77
2021/10/23 03:27:23;;;;;;;88.60;48.67;;;;;;;11.97;70.95;95310.97;4991915;28;20034;-78
2021/10/23 03:29:49;;;;;;;81.97;45.00;;;;;;;11.96;70.30;95320.59;5009519;28;20038;-78
2021/10/23 03:32:15;;;;;;;80.53;45.90;;;;;;;11.97;70.47;95316.97;4993948;28;20093;-79
2021/10/23 03:34:40;;;;;;;69.35;42.47;;;;;;;12.00;70.02;95324.34;4992918;28;20390;-81
2021/10/23 03:37:12;;;;;;;73.25;41.08;;;;;;;11.98;70.19;95313.34;4994928;28;20038;-78
2021/10/23 03:39:38;;;;;;;58.08;34.15;;;;;;;11.98;70.09;95313.34;4998815;28;20238;-78
2021/10/23 03:42:04;;;;;;;68.10;34.97;;;;;;;12.00;69.81;95316.50;4989295;28;20113;-78
2021/10/23 03:44:29;;;;;;;57.25;35.40;;;;;;;11.98;69.67;95328.97;4976641;28;20035;-78
2021/10/23 03:46:54;;;;;;;74.78;37.30;;;;;;;11.99;69.61;95325.34;5011069;28;20038;-78
2021/10/23 03:49:20;;;;;;;68.10;38.20;;;;;;;11.99;69.55;95321.97;4998051;28;20041;-78
2021/10/23 03:51:45;;;;;;;74.05;39.85;;;;;;;11.98;69.09;95334.19;5002252;28;20038;-78
2021/10/23 03:54:11;;;;;;;65.43;40.20;;;;;;;11.93;69.22;95331.50;4999477;28;20038;-78
2021/10/23 03:56:36;;;;;;;73.20;39.90;;;;;;;11.91;69.64;95328.31;5004172;28;20093;-78
2021/10/23 03:59:02;;;;;;;71.97;38.67;;;;;;;11.93;70.45;95331.50;4981028;28;20045;-78
2021/10/23 04:01:27;;;;;;;67.72;39.58;;;;;;;11.95;70.69;95328.66;5001166;28;20034;-79
2021/10/23 04:03:54;;;;;;;59.78;38.58;;;;;;;11.99;70.33;95330.56;5005994;28;20038;-78
2021/10/23 04:06:19;;;;;;;58.13;37.38;;;;;;;12.01;70.04;95331.13;4982918;28;20037;-78
2021/10/23 04:08:51;;;;;;;56.35;33.67;;;;;;;12.00;69.82;95329.53;5000585;28;20035;-79
2021/10/23 04:11:17;;;;;;;59.58;33.70;;;;;;;12.05;70.28;95328.09;5017019;28;20042;-78
2021/10/23 04:13:42;;;;;;;61.65;33.13;;;;;;;12.08;70.90;95328.41;5012448;28;20037;-79
2021/10/23 04:16:07;;;;;;;56.03;33.20;;;;;;;12.13;70.84;95330.34;5007713;28;20160;-80
2021/10/23 04:18:33;;;;;;;52.63;32.33;;;;;;;12.16;71.18;95324.66;4986640;28;20029;-79
2021/10/23 04:20:58;;;;;;;58.10;33.22;;;;;;;12.16;70.22;95327.28;4988461;28;20035;-80
2021/10/23 04:23:24;;;;;;;65.85;31.40;;;;;;;12.17;69.74;95334.06;5006921;28;20023;-80
2021/10/23 04:25:49;;;;;;;62.95;33.65;;;;;;;12.19;69.92;95335.41;5008847;28;20044;-79
2021/10/23 04:28:14;;;;;;;52.55;30.40;;;;;;;12.18;69.77;95344.25;4998478;28;20032;-80
2021/10/23 04:30:40;;;;;;;53.85;32.78;;;;;;;12.19;69.95;95338.03;4997163;28;20037;-78
2021/10/23 04:33:05;;;;;;;52.83;30.88;;;;;;;12.21;69.62;95337.81;4992129;28;20429;-77
2021/10/23 04:35:31;;;;;;;51.13;33.63;;;;;;;12.20;69.00;95344.03;5012684;28;20030;-77
2021/10/23 04:37:56;;;;;;;115.93;74.43;;;;;;;12.23;68.38;95343.59;4992519;28;20054;-77
2021/10/23 04:40:31;;;;;;;70.55;45.13;;;;;;;12.20;68.71;95346.63;4993095;28;20034;-77
2021/10/23 04:42:56;;;;;;;76.57;37.42;;;;;;;12.18;68.61;95344.25;4980562;28;20039;-77
2021/10/23 04:45:22;;;;;;;62.00;38.60;;;;;;;12.19;68.82;95347.66;4996919;28;20077;-78
2021/10/23 04:47:47;;;;;;;78.78;46.17;;;;;;;12.18;68.85;95348.69;4983731;28;20070;-78
2021/10/23 04:50:13;;;;;;;74.07;47.63;;;;;;;12.18;69.03;95353.91;4984405;28;20075;-78
2021/10/23 04:52:38;;;;;;;82.53;48.08;;;;;;;12.17;68.83;95347.91;4991397;28;20038;-78
2021/10/23 04:55:04;;;;;;;93.38;48.78;;;;;;;12.18;68.78;95354.69;5000141;28;20521;-77
2021/10/23 04:57:32;;;;;;;60.78;34.60;;;;;;;12.20;69.02;95352.69;4999007;28;20378;-77
2021/10/23 04:59:58;;;;;;;57.13;31.48;;;;;;;12.19;69.17;95355.47;4993796;28;20027;-77
2021/10/23 05:02:23;;;;;;;65.10;38.63;;;;;;;12.22;68.74;95361.06;4999643;28;20050;-78
2021/10/23 05:04:49;;;;;;;129.00;69.65;;;;;;;12.20;69.09;95362.28;5008844;28;20062;-78
2021/10/23 05:07:14;;;;;;;121.38;62.95;;;;;;;12.19;68.79;95360.69;5002747;28;20031;-78
2021/10/23 05:09:40;;;;;;;128.50;65.50;;;;;;;12.26;68.82;95369.22;4991761;28;20034;-77
2021/10/23 05:14:32;;;;;;;113.05;62.47;;;;;;;12.26;69.38;95377.03;5330625;23;20054;-78
2021/10/23 05:19:32;;;;;;;101.68;54.25;;;;;;;12.27;69.53;95389.06;5088877;23;20058;-81
2021/10/23 05:21:57;;;;;;;89.82;50.30;;;;;;;12.30;69.76;95391.19;5007902;28;20033;-81
2021/10/23 05:24:23;;;;;;;72.55;44.15;;;;;;;12.35;69.85;95391.28;4993963;28;20038;-80
2021/10/23 05:26:50;;;;;;;113.05;55.72;;;;;;;12.39;69.66;95392.44;4997214;28;20022;-80
2021/10/23 05:29:15;;;;;;;96.38;55.95;;;;;;;12.45;69.65;95386.31;5010832;28;20486;-79
2021/10/23 05:31:41;;;;;;;136.95;66.93;;;;;;;12.53;69.14;95393.78;4979480;28;20041;-79
2021/10/23 05:34:06;;;;;;;134.98;71.82;;;;;;;12.61;68.57;95398.66;4995451;28;20049;-79
2021/10/23 05:36:32;;;;;;;117.05;63.03;;;;;;;12.70;68.35;95395.69;4996707;28;20038;-79
2021/10/23 05:38:57;;;;;;;166.85;79.05;;;;;;;12.82;67.84;95401.66;4971027;28;20042;-79
2021/10/23 05:41:23;;;;;;;151.70;78.22;;;;;;;12.98;68.17;95403.53;4978318;28;20072;-80
2021/10/23 05:43:48;;;;;;;160.50;83.43;;;;;;;13.22;67.43;95401.69;4969343;28;20038;-79
2021/10/23 05:46:14;;;;;;;160.07;85.68;;;;;;;13.46;66.71;95404.97;4995452;28;20092;-79
2021/10/23 05:52:12;;;;;;;179.68;95.13;;;;;;;13.85;65.88;95411.13;4992863;28;20050;-81
2021/10/23 05:54:37;;;;;;;180.02;95.22;;;;;;;14.03;65.34;95410.13;4995597;28;20117;-81
2021/10/23 05:57:09;;;;;;;171.85;89.60;;;;;;;14.24;65.05;95408.59;4994000;28;20036;-81
2021/10/23 05:59:41;;;;;;;170.23;95.43;;;;;;;14.41;64.58;95409.34;4995324;28;20033;-79
2021/10/23 06:02:28;;;;;;;161.60;91.80;;;;;;;14.52;63.72;95415.56;4992868;28;20102;-80
2021/10/23 06:04:55;;;;;;;186.35;97.15;;;;;;;14.71;63.17;95422.09;4995456;28;20041;-79
2021/10/23 06:07:21;;;;;;;216.35;107.20;;;;;;;15.19;62.99;95420.56;4994346;28;20100;-79
2021/10/23 06:09:47;;;;;;;141.30;77.47;;;;;;;15.66;60.06;95431.31;4993525;28;20375;-80
2021/10/23 06:12:12;;;;;;;153.85;85.75;;;;;;;15.69;59.63;95432.63;5008518;28;20057;-80
2021/10/23 06:14:38;;;;;;;143.63;77.07;;;;;;;15.69;60.04;95440.50;4993445;28;20476;-81
2021/10/23 06:17:05;;;;;;;109.25;62.20;;;;;;;15.73;59.36;95437.13;4993480;28;20497;-82
2021/10/23 06:19:31;;;;;;;93.43;47.30;;;;;;;15.73;59.08;95444.22;4978410;28;20066;-80
2021/10/23 06:21:59;;;;;;;61.65;35.33;;;;;;;15.81;58.80;95443.78;4994375;28;20034;-81
2021/10/23 06:24:25;;;;;;;94.75;56.13;;;;;;;15.87;59.09;95438.31;4973421;28;20816;-82
2021/10/23 06:26:50;;;;;;;99.38;53.85;;;;;;;15.96;59.39;95456.22;4993671;28;20038;-79
2021/10/23 06:29:16;;;;;;;85.68;40.90;;;;;;;15.97;59.66;95473.56;4970350;28;20116;-81
2021/10/23 06:31:41;;;;;;;92.80;51.38;;;;;;;15.90;59.91;95468.50;4968998;28;20033;-80
2021/10/23 06:34:07;;;;;;;83.47;49.65;;;;;;;15.83;60.40;95463.47;4968891;28;20041;-80
2021/10/23 06:36:32;;;;;;;82.68;43.53;;;;;;;15.77;60.55;95459.19;4977629;28;20054;-81
2021/10/23 06:38:58;;;;;;;72.88;39.72;;;;;;;15.75;60.91;95470.97;4995210;28;20548;-80
2021/10/23 06:41:23;;;;;;;88.38;44.97;;;;;;;15.76;59.98;95467.31;4997182;28;20038;-79
2021/10/23 06:43:49;;;;;;;103.22;45.65;;;;;;;15.70;59.94;95463.06;5011129;28;20026;-83
2021/10/23 06:46:14;;;;;;;97.53;51.53;;;;;;;15.63;59.95;95472.97;4980189;28;20040;-79
2021/10/23 06:48:40;;;;;;;94.53;53.20;;;;;;;15.63;60.26;95476.38;4993880;28;20395;-77
2021/10/23 06:51:05;;;;;;;99.15;57.33;;;;;;;15.68;60.90;95480.88;4992372;28;20038;-77
2021/10/23 06:53:30;;;;;;;107.28;59.30;;;;;;;15.73;60.50;95473.03;4974115;28;20509;-77
2021/10/23 06:55:56;;;;;;;111.68;64.55;;;;;;;15.78;60.36;95480.94;4975155;28;20031;-77
2021/10/23 07:01:43;;;;;;;90.15;57.67;;;;;;;15.87;60.69;95479.47;4995313;28;20429;-82
2021/10/23 07:04:08;;;;;;;99.55;55.78;;;;;;;15.86;61.13;95491.00;4997007;28;20026;-79
2021/10/23 07:06:34;;;;;;;99.18;53.65;;;;;;;15.81;61.09;95486.53;5010983;28;20060;-80
2021/10/23 07:09:00;;;;;;;84.72;46.90;;;;;;;15.78;60.64;95483.56;4994866;28;20038;-82
2021/10/23 07:11:25;;;;;;;80.30;40.05;;;;;;;15.70;60.44;95487.44;4994208;28;20046;-81
2021/10/23 07:13:51;;;;;;;74.35;38.65;;;;;;;15.65;60.31;95486.63;4995292;28;20112;-81
2021/10/23 07:16:16;;;;;;;65.90;38.40;;;;;;;15.43;61.36;95487.38;4996504;28;20560;-81
2021/10/23 07:18:42;;;;;;;57.35;29.65;;;;;;;15.25;61.86;95487.69;4996421;28;20038;-81
2021/10/23 07:21:08;;;;;;;53.20;28.40;;;;;;;15.30;61.65;95495.63;4971905;28;20101;-80
2021/10/23 07:23:37;;;;;;;60.22;29.02;;;;;;;15.38;61.42;95489.97;4997593;28;20085;-85
2021/10/23 07:26:02;;;;;;;61.47;31.02;;;;;;;15.53;61.48;95490.13;4975230;28;20038;-81
2021/10/23 07:28:28;;;;;;;54.83;28.80;;;;;;;15.67;61.05;95495.81;5001090;28;20038;-81
2021/10/23 07:30:53;;;;;;;56.53;26.98;;;;;;;15.77;60.37;95490.66;4999803;28;20038;-81
2021/10/23 07:33:19;;;;;;;48.63;23.85;;;;;;;15.96;59.90;95493.75;4964722;28;20042;-81
2021/10/23 07:35:45;;;;;;;52.33;23.42;;;;;;;16.13;58.80;95497.03;5001852;28;20042;-80
2021/10/23 07:38:11;;;;;;;50.20;26.92;;;;;;;16.27;58.83;95499.22;4995744;28;20527;-79
2021/10/23 07:40:40;;;;;;;61.80;32.63;;;;;;;16.30;58.74;95493.50;4989884;28;20042;-81
2021/10/23 07:43:09;;;;;;;79.93;36.17;;;;;;;16.25;58.93;95496.84;4995814;28;20046;-78
2021/10/23 07:45:35;;;;;;;69.70;38.13;;;;;;;16.27;58.93;95493.97;4995020;28;20486;-78
2021/10/23 07:48:03;;;;;;;71.22;38.28;;;;;;;16.33;58.82;95504.28;4978666;28;20036;-79
2021/10/23 07:50:29;;;;;;;70.60;33.60;;;;;;;16.51;56.69;95511.00;5001052;28;20068;-83
2021/10/23 07:52:56;;;;;;;63.40;32.13;;;;;;;16.69;56.38;95512.44;4998903;28;20038;-81
2021/10/23 07:55:22;;;;;;;58.53;32.78;;;;;;;16.89;56.02;95506.53;5001001;28;20045;-82
2021/10/23 07:58:01;;;;;;;52.80;29.73;;;;;;;16.97;55.61;95508.69;4995075;28;20034;-79
2021/10/23 08:00:27;;;;;;;59.42;27.27;;;;;;;17.13;54.69;95507.72;4994733;28;20482;-81
2021/10/23 08:02:57;;;;;;;39.55;25.38;;;;;;;17.32;54.30;95506.22;4985166;28;20042;-80
2021/10/23 08:05:25;;;;;;;47.75;26.45;;;;;;;17.71;54.35;95503.22;4960783;28;20213;-80
2021/10/23 08:07:51;;;;;;;55.15;27.20;;;;;;;18.11;53.32;95513.06;4995413;28;20380;-79
2021/10/23 08:10:18;;;;;;;46.22;23.70;;;;;;;18.47;52.14;95516.50;4978140;28;20473;-80
2021/10/23 08:12:45;;;;;;;46.25;22.50;;;;;;;18.71;50.32;95510.69;4993541;28;20038;-80
2021/10/23 08:15:11;;;;;;;34.35;20.70;;;;;;;18.92;49.95;95507.00;4993090;28;20114;-81
2021/10/23 08:17:38;;;;;;;47.30;21.35;;;;;;;19.16;50.51;95507.19;4979034;28;20041;-79
2021/10/23 08:20:06;;;;;;;37.33;23.83;;;;;;;19.45;50.38;95507.34;4995584;28;20379;-79
2021/10/23 08:22:32;;;;;;;56.78;28.10;;;;;;;19.59;49.18;95516.28;4981971;28;20038;-81
2021/10/23 08:24:58;;;;;;;36.72;23.48;;;;;;;19.75;48.64;95515.16;5005411;28;20044;-79
2021/10/23 08:27:24;;;;;;;43.97;20.63;;;;;;;19.89;48.00;95520.63;4993778;28;20061;-81
2021/10/23 08:29:50;;;;;;;37.30;22.02;;;;;;;20.01;48.30;95522.91;5007880;28;20045;-78
2021/10/23 08:32:21;;;;;;;44.13;23.67;;;;;;;20.10;47.41;95521.28;5009351;28;20100;-79
2021/10/23 08:34:47;;;;;;;40.03;20.13;;;;;;;20.04;47.81;95522.41;5025132;28;20026;-78
2021/10/23 08:37:13;;;;;;;28.65;15.82;;;;;;;19.96;47.40;95523.75;4982672;28;20098;-81
2021/10/23 08:39:40;;;;;;;23.52;15.75;;;;;;;19.85;47.45;95524.06;4987324;28;20054;-80
2021/10/23 08:42:06;;;;;;;35.30;17.10;;;;;;;19.74;48.22;95523.34;5011246;28;20023;-83
2021/10/23 08:44:32;;;;;;;43.80;22.15;;;;;;;19.65;48.72;95519.69;5009023;28;20035;-79
2021/10/23 08:46:58;;;;;;;51.85;28.38;;;;;;;19.56;49.31;95516.06;5005055;28;20038;-82
2021/10/23 08:49:25;;;;;;;57.75;32.38;;;;;;;19.44;49.64;95524.25;4985887;28;20042;-81
2021/10/23 08:51:51;;;;;;;64.13;33.78;;;;;;;19.33;50.26;95527.97;5022597;28;20042;-83
2021/10/23 08:54:17;;;;;;;60.03;33.33;;;;;;;19.29;50.39;95529.56;5006139;28;20045;-82
2021/10/23 08:56:43;;;;;;;60.30;24.40;;;;;;;19.24;50.69;95530.38;5008372;28;20061;-81
2021/10/23 08:59:08;;;;;;;42.65;22.42;;;;;;;19.22;50.43;95526.44;4995616;28;20040;-78
2021/10/23 09:01:34;;;;;;;38.28;21.20;;;;;;;19.16;51.22;95526.44;5000262;28;20026;-78
2021/10/23 09:04:00;;;;;;;40.17;17.88;;;;;;;19.17;50.80;95522.72;4999682;28;20069;-80
2021/10/23 09:06:34;;;;;;;32.50;17.33;;;;;;;19.33;50.73;95523.47;5022290;28;20039;-79
2021/10/23 09:09:08;;;;;;;28.80;15.68;;;;;;;19.50;49.73;95525.78;4978062;28;20038;-82
2021/10/23 09:11:40;;;;;;;42.20;17.15;;;;;;;19.78;49.45;95527.00;4967982;28;20165;-80
2021/10/23 09:14:32;;;;;;;25.98;15.13;;;;;;;20.10;48.85;95523.94;4988437;28;20030;-78
2021/10/23 09:17:05;;;;;;;30.45;15.30;;;;;;;20.19;47.88;95527.59;4982245;28;20058;-78
2021/10/23 09:19:35;;;;;;;37.88;14.82;;;;;;;20.19;47.93;95527.59;4989320;28;20054;-80
2021/10/23 09:22:02;;;;;;;28.88;14.35;;;;;;;20.20;48.30;95529.16;5004194;28;20514;-79
2021/10/23 09:24:27;;;;;;;27.33;12.80;;;;;;;20.21;47.89;95524.66;4986738;28;20034;-78
2021/10/23 09:26:53;;;;;;;17.67;11.90;;;;;;;20.10;47.64;95523.94;4998453;28;20034;-79
2021/10/23 09:29:23;;;;;;;20.77;11.73;;;;;;;20.04;48.27;95532.97;5002917;28;20038;-78
2021/10/23 09:31:48;;;;;;;25.15;12.18;;;;;;;20.05;48.37;95526.63;4998893;28;20042;-78
2021/10/23 09:34:15;;;;;;;17.33;10.30;;;;;;;20.08;48.15;95529.50;4988529;28;20053;-81
2021/10/23 09:36:51;;;;;;;24.38;10.43;;;;;;;20.10;47.99;95529.22;5002850;28;20584;-82
2021/10/23 09:39:33;;;;;;;17.95;10.00;;;;;;;20.13;48.64;95519.94;4986956;28;20041;-82
2021/10/23 09:42:11;;;;;;;18.40;8.23;;;;;;;20.17;48.41;95521.75;4995774;28;20038;-79
2021/10/23 09:45:02;;;;;;;13.45;7.28;;;;;;;20.21;47.05;95516.75;4999141;28;20057;-82
2021/10/23 09:47:44;;;;;;;19.52;7.65;;;;;;;20.21;47.37;95522.81;5005094;28;20039;-79
2021/10/23 09:50:20;;;;;;;11.07;6.83;;;;;;;20.21;47.29;95519.38;5006271;28;20098;-78
2021/10/23 09:53:04;;;;;;;14.32;7.95;;;;;;;20.19;47.60;95518.88;5004404;28;20034;-82
2021/10/23 09:55:33;;;;;;;12.88;7.25;;;;;;;20.05;48.16;95513.41;5007808;28;20069;-82
2021/10/23 09:58:15;;;;;;;11.57;6.75;;;;;;;19.88;47.86;95518.28;4991760;28;20042;-81
2021/10/23 10:00:41;;;;;;;15.20;7.50;;;;;;;19.74;48.84;95516.22;5007254;28;20038;-80
2021/10/23 10:03:07;;;;;;;14.02;7.45;;;;;;;19.58;49.17;95512.06;4974147;28;20069;-79
2021/10/23 10:05:34;;;;;;;16.02;7.93;;;;;;;19.46;49.46;95516.84;4989550;28;20034;-82
2021/10/23 10:08:06;;;;;;;14.05;7.43;;;;;;;19.37;50.42;95507.94;4988153;28;20030;-82
2021/10/23 10:10:34;;;;;;;14.80;8.88;;;;;;;19.31;50.86;95509.00;4965108;28;20045;-82
2021/10/23 10:12:59;;;;;;;16.20;8.90;;;;;;;19.28;51.37;95506.88;4969810;28;20039;-81
2021/10/23 10:15:25;;;;;;;13.63;8.82;;;;;;;19.31;51.56;95507.13;5009305;28;20030;-81
2021/10/23 10:17:50;;;;;;;14.63;8.52;;;;;;;19.39;51.00;95511.06;5009608;28;20041;-81
2021/10/23 10:20:16;;;;;;;13.98;8.75;;;;;;;19.39;51.04;95496.03;5007936;28;20033;-81
2021/10/23 10:22:54;;;;;;;20.45;9.10;;;;;;;19.29;51.16;95506.63;4993595;28;20038;-81
2021/10/23 10:25:23;;;;;;;15.77;8.55;;;;;;;19.18;51.33;95505.06;4999502;28;20088;-81
2021/10/23 10:27:52;;;;;;;12.75;8.40;;;;;;;19.11;52.18;95504.56;5006152;28;20089;-80
2021/10/23 10:30:23;;;;;;;27.73;9.13;;;;;;;19.03;52.20;95500.63;4993412;28;20030;-81
2021/10/23 10:32:49;;;;;;;20.27;8.68;;;;;;;19.04;52.21;95504.88;4994401;28;20502;-81
2021/10/23 10:35:26;;;;;;;15.00;9.48;;;;;;;19.00;52.03;95508.28;4993192;28;20030;-81
2021/10/23 10:43:05;;;;;;;17.02;8.23;;;;;;;18.89;51.71;95518.88;4993751;28;20049;-80
2021/10/23 10:45:31;;;;;;;21.90;8.05;;;;;;;18.78;52.49;95524.41;4993520;28;20036;-80
2021/10/23 10:48:21;;;;;;;28.38;9.80;;;;;;;18.73;53.04;95519.16;5010386;28;20057;-80
2021/10/23 10:50:47;;;;;;;15.75;8.52;;;;;;;18.71;52.88;95523.88;5009794;28;20034;-80
2021/10/23 10:53:28;;;;;;;17.80;8.40;;;;;;;18.71;53.20;95511.53;5010868;28;20030;-80
2021/10/23 10:56:10;;;;;;;32.15;8.65;;;;;;;18.77;53.34;95520.97;4994534;28;20046;-81
2021/10/23 10:58:47;;;;;;;18.75;10.73;;;;;;;18.81;53.45;95516.75;5007304;28;20034;-81
2021/10/23 11:01:22;;;;;;;21.65;11.77;;;;;;;18.85;53.32;95511.75;5004197;28;20031;-78
2021/10/23 11:03:51;;;;;;;26.08;12.88;;;;;;;18.90;53.32;95511.75;5008689;28;20094;-82
2021/10/23 11:06:29;;;;;;;18.05;10.50;;;;;;;18.96;52.91;95513.31;5007253;28;20037;-81
2021/10/23 11:09:16;;;;;;;23.80;11.43;;;;;;;18.99;52.93;95517.25;5004608;28;20930;-80
2021/10/23 11:11:44;;;;;;;31.38;14.68;;;;;;;18.97;53.59;95517.53;5004930;28;20034;-80
2021/10/23 11:14:23;;;;;;;18.30;9.75;;;;;;;18.96;53.28;95518.56;5005773;28;20038;-79
2021/10/23 11:16:55;;;;;;;17.98;9.98;;;;;;;18.87;53.85;95520.97;5001693;28;20026;-79
2021/10/23 11:19:30;;;;;;;15.77;9.82;;;;;;;18.82;54.18;95517.53;5000099;28;20022;-77
2021/10/23 11:22:11;;;;;;;26.70;12.93;;;;;;;18.74;54.27;95526.00;4986368;28;20073;-79
2021/10/23 11:24:41;;;;;;;17.10;10.95;;;;;;;18.72;54.74;95521.00;4974232;28;20034;-82
2021/10/23 11:27:29;;;;;;;14.57;12.07;;;;;;;18.65;55.20;95517.03;5005959;28;20056;-80
2021/10/23 11:30:03;;;;;;;11.40;8.27;;;;;;;18.67;55.29;95520.19;5006659;28;20070;-81
2021/10/23 11:32:39;;;;;;;15.73;7.88;;;;;;;18.63;55.33;95519.13;5002468;28;20034;-79
2021/10/23 11:35:06;;;;;;;18.33;8.82;;;;;;;18.57;55.93;95527.03;4978719;28;20036;-79
2021/10/23 11:37:31;;;;;;;14.23;9.00;;;;;;;18.55;56.58;95518.59;4989363;28;20038;-80